Terminal Aerodrome Forecast
Issued by NWS

Current Version | Previous Version | Text Only | Print | Product List | Glossary Off
Versions: 1 2 3 4 5 6 7 8 9 10 11 12 13 14 15 16 17 18 19 20 21

294
FTUS41 KPBZ 072320
TAFHLG
TAF
KHLG 072320Z 0800/0824 24010KT P6SM BKN120
     FM081000 26010KT P6SM OVC050
     FM081500 26012G25KT P6SM OVC015=

USA.gov is the U.S. government's official web portal to all federal, state and local government web resources and services.